Time;durP1;ratioP1;P1;durP2;ratioP2;P2;SDS_P1;SDS_P2;PMS_P1;PMS_P2;Temp;Humidity;BMP_temperature;BMP_pressure;BME280_temperature;BME280_humidity;BME280_pressure;Samples;Min_cycle;Max_cycle;Signal;HPM_P1;HPM_P2
2023/07/21 00:01:03;;;;;;;14.60;8.73;;;14.90;99.90;;;;;;5029351;27;45209;-68
2023/07/21 00:03:30;;;;;;;12.85;9.50;;;14.80;99.90;;;;;;5020216;27;45268;-67
2023/07/21 00:05:57;;;;;;;12.70;9.77;;;14.90;99.90;;;;;;5042197;27;45239;-67
2023/07/21 00:08:24;;;;;;;13.77;9.90;;;14.90;99.90;;;;;;5022723;27;45364;-67
2023/07/21 00:10:51;;;;;;;10.20;8.95;;;15.10;99.90;;;;;;5017051;27;45269;-68
2023/07/21 00:13:17;;;;;;;16.25;10.05;;;15.00;99.90;;;;;;5037588;27;45077;-67
2023/07/21 00:15:48;;;;;;;15.00;10.05;;;15.10;99.90;;;;;;5024556;27;45148;-67
2023/07/21 00:18:15;;;;;;;11.02;8.93;;;14.90;99.90;;;;;;5054426;27;45761;-67
2023/07/21 00:20:42;;;;;;;13.77;10.32;;;15.10;99.90;;;;;;5020726;28;45193;-67
2023/07/21 00:23:09;;;;;;;11.55;9.95;;;15.00;99.90;;;;;;5054936;27;45139;-68
2023/07/21 00:25:36;;;;;;;12.65;9.82;;;15.10;99.90;;;;;;5017069;27;46386;-67
2023/07/21 00:28:02;;;;;;;14.95;10.50;;;15.10;99.90;;;;;;5024771;27;45248;-68
2023/07/21 00:30:29;;;;;;;13.35;9.82;;;15.10;99.90;;;;;;5031096;27;45235;-67
2023/07/21 00:32:59;;;;;;;12.02;9.60;;;15.10;99.90;;;;;;5027525;27;45175;-67
2023/07/21 00:35:26;;;;;;;11.38;9.75;;;15.20;99.90;;;;;;5066462;27;47410;-67
2023/07/21 00:37:53;;;;;;;13.75;10.30;;;15.20;99.90;;;;;;5054318;27;45160;-67
2023/07/21 00:40:19;;;;;;;12.40;9.88;;;15.10;99.90;;;;;;5058777;27;45302;-66
2023/07/21 00:42:47;;;;;;;10.90;9.48;;;15.20;99.90;;;;;;5061992;27;45511;-67
2023/07/21 00:45:14;;;;;;;12.10;9.25;;;15.20;99.90;;;;;;5027320;28;47968;-67
2023/07/21 00:47:42;;;;;;;13.52;9.88;;;15.20;99.90;;;;;;5027087;27;45174;-67
2023/07/21 00:50:11;;;;;;;12.65;10.18;;;15.20;99.90;;;;;;5034979;27;45206;-68
2023/07/21 00:52:39;;;;;;;11.82;10.05;;;15.20;99.90;;;;;;5027265;28;45237;-67
2023/07/21 00:55:07;;;;;;;13.02;10.05;;;15.10;99.90;;;;;;5055953;27;46617;-67
2023/07/21 00:57:35;;;;;;;14.40;10.50;;;15.00;99.90;;;;;;5043047;27;45196;-67
2023/07/21 01:00:06;;;;;;;17.17;11.73;;;15.00;99.90;;;;;;5015413;28;45484;-67
2023/07/21 01:02:33;;;;;;;14.93;11.70;;;14.90;99.90;;;;;;5040042;27;45226;-67
2023/07/21 01:05:01;;;;;;;14.27;11.23;;;15.00;99.90;;;;;;5029690;27;47285;-67
2023/07/21 01:07:31;;;;;;;13.32;11.07;;;14.90;99.90;;;;;;5021349;27;45170;-67
2023/07/21 01:09:58;;;;;;;13.80;10.75;;;15.00;99.90;;;;;;5017956;27;45356;-67
2023/07/21 01:12:26;;;;;;;13.65;10.93;;;15.00;99.90;;;;;;5020582;27;45463;-68
2023/07/21 01:14:53;;;;;;;17.73;10.63;;;15.00;99.90;;;;;;5050905;27;47992;-67
2023/07/21 01:17:21;;;;;;;15.93;11.30;;;15.00;99.90;;;;;;5019652;27;45346;-67
2023/07/21 01:19:51;;;;;;;16.13;9.68;;;15.00;99.90;;;;;;5016894;27;45158;-67
2023/07/21 01:22:24;;;;;;;13.40;10.93;;;14.70;99.90;;;;;;5019577;27;45258;-67
2023/07/21 01:25:09;;;;;;;14.63;11.00;;;14.50;99.90;;;;;;5016979;27;47237;-67
2023/07/21 01:27:39;;;;;;;18.17;11.32;;;14.40;99.90;;;;;;5018360;27;45235;-67
2023/07/21 01:30:08;;;;;;;16.88;11.23;;;14.30;99.90;;;;;;5017149;27;45373;-67
2023/07/21 01:32:37;;;;;;;16.13;11.35;;;14.40;99.90;;;;;;5018505;27;45239;-68
2023/07/21 01:35:07;;;;;;;19.30;11.23;;;14.50;99.90;;;;;;5029754;27;47205;-68
2023/07/21 01:37:35;;;;;;;13.82;11.43;;;14.50;99.90;;;;;;5018914;27;45098;-67
2023/07/21 01:40:03;;;;;;;15.13;11.55;;;14.60;99.90;;;;;;5021765;27;45257;-67
2023/07/21 01:42:31;;;;;;;14.70;11.32;;;14.60;99.90;;;;;;5021371;27;45524;-68
2023/07/21 01:44:58;;;;;;;17.77;11.68;;;14.60;99.90;;;;;;5015156;27;45319;-67
2023/07/21 01:47:26;;;;;;;14.63;11.40;;;14.70;99.90;;;;;;5020358;27;45294;-67
2023/07/21 01:49:53;;;;;;;13.70;11.40;;;14.80;99.90;;;;;;5027955;27;45195;-67
2023/07/21 01:52:22;;;;;;;14.43;11.52;;;14.70;99.90;;;;;;5020593;27;45385;-67
2023/07/21 01:54:57;;;;;;;16.25;12.23;;;14.60;99.90;;;;;;5040384;27;47362;-67
2023/07/21 01:57:31;;;;;;;17.88;13.10;;;14.50;99.90;;;;;;5020677;27;45336;-67
2023/07/21 02:00:00;;;;;;;19.40;13.32;;;14.60;99.90;;;;;;5028636;27;45125;-67
2023/07/21 02:02:28;;;;;;;21.52;13.65;;;14.70;99.90;;;;;;5033924;27;45316;-67
2023/07/21 02:04:55;;;;;;;16.00;12.80;;;14.70;99.90;;;;;;5044683;27;48107;-67
2023/07/21 02:07:22;;;;;;;16.20;11.30;;;14.80;99.90;;;;;;5033266;27;45215;-67
2023/07/21 02:09:49;;;;;;;16.65;12.07;;;14.80;99.90;;;;;;5014751;27;45311;-66
2023/07/21 02:12:16;;;;;;;14.90;11.30;;;14.80;99.90;;;;;;5031183;27;45228;-67
2023/07/21 02:14:43;;;;;;;17.20;12.43;;;14.70;99.90;;;;;;5042058;27;48225;-67
2023/07/21 02:17:12;;;;;;;17.75;12.13;;;14.80;99.90;;;;;;5025045;27;45152;-68
2023/07/21 02:19:38;;;;;;;16.60;12.23;;;14.90;99.90;;;;;;5054035;27;45225;-67
2023/07/21 02:22:06;;;;;;;18.20;11.95;;;15.10;99.90;;;;;;5025032;28;45321;-68
2023/07/21 02:24:33;;;;;;;15.68;11.82;;;15.10;99.90;;;;;;5019074;27;48299;-68
2023/07/21 02:27:00;;;;;;;14.88;11.50;;;15.10;99.90;;;;;;5015946;27;45267;-67
2023/07/21 02:29:27;;;;;;;14.70;11.73;;;15.10;99.90;;;;;;5019418;27;45304;-67
2023/07/21 02:31:54;;;;;;;18.55;10.23;;;15.20;99.90;;;;;;5020810;27;45334;-67
2023/07/21 02:34:22;;;;;;;20.15;10.65;;;15.00;99.90;;;;;;5025551;27;46982;-68
2023/07/21 02:36:49;;;;;;;13.95;10.82;;;15.00;99.90;;;;;;5022191;27;45140;-67
2023/07/21 02:39:16;;;;;;;14.88;11.40;;;15.00;99.90;;;;;;5020720;27;45170;-67
2023/07/21 02:41:43;;;;;;;14.18;11.65;;;15.00;99.90;;;;;;5020021;27;45307;-67
2023/07/21 02:44:09;;;;;;;18.52;11.05;;;15.00;99.90;;;;;;5021405;27;45122;-66
2023/07/21 02:46:36;;;;;;;13.27;10.45;;;15.10;99.90;;;;;;5021004;27;45317;-67
2023/07/21 02:49:03;;;;;;;16.67;10.93;;;14.90;99.90;;;;;;5051893;27;45205;-67
2023/07/21 02:51:32;;;;;;;16.63;11.25;;;14.60;99.90;;;;;;5035687;27;45334;-67
2023/07/21 02:53:59;;;;;;;14.13;10.15;;;14.70;99.90;;;;;;5042226;27;46604;-67
2023/07/21 02:56:26;;;;;;;18.45;10.88;;;14.70;99.90;;;;;;5020348;27;45250;-67
2023/07/21 02:58:54;;;;;;;13.38;10.52;;;14.80;99.90;;;;;;5025185;27;45317;-67
2023/07/21 03:01:20;;;;;;;11.48;9.80;;;14.90;99.90;;;;;;5020526;27;45368;-68
2023/07/21 03:03:47;;;;;;;14.40;10.57;;;15.00;99.90;;;;;;5029935;27;47432;-67
2023/07/21 03:06:15;;;;;;;12.63;10.27;;;14.90;99.90;;;;;;5047784;27;45215;-67
2023/07/21 03:08:43;;;;;;;14.93;10.27;;;14.90;99.90;;;;;;5020020;28;45135;-67
2023/07/21 03:11:11;;;;;;;13.00;10.32;;;14.90;99.90;;;;;;5022068;27;45291;-68
2023/07/21 03:13:38;;;;;;;16.48;9.18;;;15.00;99.90;;;;;;5030457;27;47992;-67
2023/07/21 03:16:05;;;;;;;16.80;10.20;;;15.10;99.90;;;;;;5016339;27;46051;-67
2023/07/21 03:18:32;;;;;;;17.42;10.73;;;14.90;99.90;;;;;;5062387;27;45199;-67
2023/07/21 03:20:59;;;;;;;14.68;10.45;;;14.90;99.90;;;;;;5059694;27;45203;-67
2023/07/21 03:23:26;;;;;;;21.50;10.13;;;14.80;99.90;;;;;;5044661;27;46330;-67
2023/07/21 03:25:54;;;;;;;14.30;10.75;;;15.00;99.90;;;;;;5061011;27;45112;-67
2023/07/21 03:28:23;;;;;;;15.93;10.13;;;15.10;99.90;;;;;;5021588;27;45266;-67
2023/07/21 03:30:57;;;;;;;13.70;10.48;;;15.20;99.90;;;;;;5029164;27;45508;-67
2023/07/21 03:33:24;;;;;;;14.23;10.65;;;15.20;99.90;;;;;;5053342;27;45342;-67
2023/07/21 03:35:59;;;;;;;15.52;10.70;;;15.20;99.90;;;;;;5056639;27;45404;-67
2023/07/21 03:38:27;;;;;;;18.38;11.30;;;15.20;99.90;;;;;;5060240;27;45151;-67
2023/07/21 03:41:01;;;;;;;18.58;11.50;;;15.30;99.90;;;;;;5060420;27;45468;-67
2023/07/21 03:43:28;;;;;;;19.23;10.38;;;15.20;99.90;;;;;;5019655;28;48343;-67
2023/07/21 03:45:59;;;;;;;15.73;10.68;;;15.20;99.90;;;;;;5031138;27;45150;-67
2023/07/21 03:48:26;;;;;;;14.38;10.23;;;15.20;99.90;;;;;;5055311;27;45243;-68
2023/07/21 03:50:57;;;;;;;17.15;11.60;;;15.20;99.90;;;;;;5029350;27;45157;-67
2023/07/21 03:53:24;;;;;;;16.77;11.10;;;15.20;99.90;;;;;;5052222;27;45352;-67
2023/07/21 03:55:51;;;;;;;16.25;11.30;;;15.20;99.90;;;;;;5026671;27;45451;-67
2023/07/21 03:58:20;;;;;;;14.95;11.38;;;15.20;99.90;;;;;;5018635;28;45286;-67
2023/07/21 04:00:47;;;;;;;18.77;11.50;;;15.10;99.90;;;;;;5039075;27;45143;-67
2023/07/21 04:03:14;;;;;;;18.38;12.18;;;15.10;99.90;;;;;;5052329;27;47335;-67
2023/07/21 04:05:41;;;;;;;15.60;11.63;;;15.10;99.90;;;;;;5020038;27;45390;-67
2023/07/21 04:08:08;;;;;;;15.18;11.55;;;15.20;99.90;;;;;;5018597;27;45313;-69
2023/07/21 04:10:36;;;;;;;16.15;11.90;;;15.10;99.90;;;;;;5032723;27;45399;-68
2023/07/21 04:13:03;;;;;;;17.65;12.27;;;15.10;99.90;;;;;;5039158;27;46305;-68
2023/07/21 04:15:31;;;;;;;16.80;12.13;;;15.00;99.90;;;;;;5016040;27;45126;-68
2023/07/21 04:17:58;;;;;;;18.30;12.00;;;15.10;99.90;;;;;;5022179;27;45330;-68
2023/07/21 04:20:24;;;;;;;22.73;12.23;;;15.10;99.90;;;;;;5051470;27;45369;-67
2023/07/21 04:22:52;;;;;;;20.23;12.02;;;15.00;99.90;;;;;;5020398;27;45258;-68
2023/07/21 04:25:19;;;;;;;20.00;12.85;;;14.80;99.90;;;;;;5015827;28;45702;-68
2023/07/21 04:27:48;;;;;;;21.40;12.27;;;14.70;99.90;;;;;;5020652;27;45282;-67
2023/07/21 04:30:15;;;;;;;20.83;12.52;;;14.70;99.90;;;;;;5018705;27;45234;-67
2023/07/21 04:32:43;;;;;;;17.42;12.27;;;14.70;99.90;;;;;;5060399;27;46560;-67
2023/07/21 04:35:10;;;;;;;17.35;11.65;;;14.70;99.90;;;;;;5074748;27;45045;-68
2023/07/21 04:37:37;;;;;;;17.08;12.30;;;14.60;99.90;;;;;;5034189;27;45276;-67
2023/07/21 04:40:06;;;;;;;20.00;11.38;;;14.70;99.90;;;;;;5019853;27;45264;-67
2023/07/21 04:42:33;;;;;;;15.30;11.98;;;14.90;99.90;;;;;;5019096;28;46357;-66
2023/07/21 04:45:00;;;;;;;18.30;11.65;;;14.90;99.90;;;;;;5019222;27;45164;-66
2023/07/21 04:47:27;;;;;;;13.75;10.95;;;14.90;99.90;;;;;;5020241;27;45278;-67
2023/07/21 04:49:55;;;;;;;16.33;12.45;;;14.70;99.90;;;;;;5019050;28;45207;-67
2023/07/21 04:52:22;;;;;;;18.77;12.13;;;14.70;99.90;;;;;;5016446;27;45452;-67
2023/07/21 04:54:49;;;;;;;20.13;13.23;;;14.70;99.90;;;;;;5036013;27;45606;-67
2023/07/21 04:57:15;;;;;;;20.70;13.30;;;14.80;99.90;;;;;;5017115;27;45350;-67
2023/07/21 04:59:43;;;;;;;16.63;11.88;;;14.90;99.90;;;;;;5018198;28;45234;-68
2023/07/21 05:02:10;;;;;;;16.80;11.68;;;15.00;99.90;;;;;;5019338;27;46989;-67
2023/07/21 05:04:37;;;;;;;20.65;11.88;;;15.10;99.90;;;;;;5019260;27;45153;-67
2023/07/21 05:07:05;;;;;;;17.33;12.38;;;15.10;99.90;;;;;;5022233;27;45349;-67
2023/07/21 05:09:32;;;;;;;21.45;12.95;;;15.00;99.90;;;;;;5017252;28;45431;-67
2023/07/21 05:11:59;;;;;;;20.23;12.63;;;14.90;99.90;;;;;;5021690;27;48266;-67
2023/07/21 05:14:26;;;;;;;26.77;12.55;;;14.90;99.90;;;;;;5021366;28;45142;-67
2023/07/21 05:16:53;;;;;;;17.67;12.60;;;15.00;99.90;;;;;;5021804;28;45247;-67
2023/07/21 05:19:20;;;;;;;18.90;12.30;;;15.00;99.90;;;;;;5036137;27;45267;-67
2023/07/21 05:21:46;;;;;;;15.98;11.88;;;15.10;99.90;;;;;;5027692;27;47133;-68
2023/07/21 05:24:14;;;;;;;22.13;13.50;;;15.10;99.90;;;;;;5026044;27;45064;-67
2023/07/21 05:26:41;;;;;;;20.25;12.73;;;15.20;99.90;;;;;;5065022;27;45185;-67
2023/07/21 05:29:08;;;;;;;17.05;12.32;;;15.10;99.90;;;;;;5035802;27;45403;-68
2023/07/21 05:31:35;;;;;;;20.05;12.43;;;15.20;99.90;;;;;;5018409;27;47438;-66
2023/07/21 05:34:07;;;;;;;19.77;11.95;;;15.30;99.90;;;;;;5018172;27;45157;-67
2023/07/21 05:36:34;;;;;;;28.13;13.55;;;15.30;99.90;;;;;;5020939;28;45239;-67
2023/07/21 05:39:01;;;;;;;22.33;12.50;;;15.20;99.90;;;;;;5021455;27;45565;-67
2023/07/21 05:41:29;;;;;;;21.88;13.05;;;15.30;99.90;;;;;;5020199;27;48861;-68
2023/07/21 05:43:58;;;;;;;19.35;12.93;;;15.20;99.90;;;;;;5021809;27;45158;-69
2023/07/21 05:46:25;;;;;;;25.45;12.88;;;15.30;99.90;;;;;;5025143;27;45243;-68
2023/07/21 05:48:51;;;;;;;22.35;11.82;;;15.40;99.90;;;;;;5021323;27;45116;-69
2023/07/21 05:51:18;;;;;;;18.10;11.98;;;15.40;99.90;;;;;;5022617;27;47232;-68
2023/07/21 05:53:45;;;;;;;20.67;12.48;;;15.50;99.90;;;;;;5021232;27;45108;-69
2023/07/21 05:56:12;;;;;;;23.95;13.27;;;15.50;99.90;;;;;;5023603;27;45139;-68
2023/07/21 05:58:41;;;;;;;28.25;13.85;;;15.70;99.90;;;;;;5012675;27;45444;-69
2023/07/21 06:01:10;;;;;;;20.80;12.85;;;15.60;99.90;;;;;;5014654;27;45183;-68
2023/07/21 06:03:38;;;;;;;21.00;13.95;;;15.70;99.90;;;;;;5021167;27;45225;-70
2023/07/21 06:06:05;;;;;;;18.88;12.85;;;15.90;99.90;;;;;;5023226;27;45375;-68
2023/07/21 06:08:34;;;;;;;17.48;13.45;;;15.90;99.90;;;;;;5024983;28;45424;-70
2023/07/21 06:11:02;;;;;;;17.52;13.07;;;15.90;99.90;;;;;;5020758;27;47549;-69
2023/07/21 06:13:29;;;;;;;19.58;14.23;;;16.20;99.90;;;;;;5021522;28;45164;-68
2023/07/21 06:15:57;;;;;;;23.50;14.65;;;16.00;99.90;;;;;;5020936;27;45135;-69
2023/07/21 06:18:24;;;;;;;22.13;16.10;;;16.00;99.90;;;;;;5021113;27;45055;-68
2023/07/21 06:20:52;;;;;;;22.55;15.90;;;16.00;99.90;;;;;;5020720;27;45210;-68
2023/07/21 06:23:19;;;;;;;25.45;15.77;;;16.10;99.90;;;;;;5021118;28;45620;-68
2023/07/21 06:25:45;;;;;;;23.80;16.83;;;16.20;99.90;;;;;;5021092;28;45343;-69
2023/07/21 06:28:12;;;;;;;25.75;16.30;;;16.20;99.90;;;;;;5021630;27;45306;-68
2023/07/21 06:30:39;;;;;;;21.40;16.05;;;16.30;99.90;;;;;;5020358;27;47686;-67
2023/07/21 06:33:07;;;;;;;25.27;16.98;;;16.40;99.90;;;;;;5020650;27;45325;-68
2023/07/21 06:35:35;;;;;;;28.30;17.08;;;16.30;99.90;;;;;;5027283;27;45211;-68
2023/07/21 06:38:03;;;;;;;25.77;17.17;;;16.40;99.90;;;;;;5021190;27;45255;-67
2023/07/21 06:40:31;;;;;;;22.30;15.38;;;16.60;99.90;;;;;;5019805;27;45196;-68
2023/07/21 06:42:58;;;;;;;25.70;16.70;;;16.60;99.90;;;;;;5021499;28;45305;-68
2023/07/21 06:45:25;;;;;;;30.02;17.05;;;16.80;99.90;;;;;;5025146;27;45284;-68
2023/07/21 06:47:52;;;;;;;25.30;16.98;;;16.80;99.90;;;;;;5055369;27;45532;-68
2023/07/21 06:50:20;;;;;;;22.20;16.00;;;16.90;99.90;;;;;;5007346;28;45163;-67
2023/07/21 06:52:47;;;;;;;21.05;14.85;;;16.90;99.90;;;;;;5016144;28;45217;-68
2023/07/21 06:55:14;;;;;;;22.48;14.57;;;17.00;99.90;;;;;;5013733;27;45334;-69
2023/07/21 06:57:41;;;;;;;24.48;15.65;;;17.00;99.90;;;;;;5018398;28;45274;-68
2023/07/21 07:00:09;;;;;;;23.90;15.15;;;17.00;99.90;;;;;;5019615;27;46239;-67
2023/07/21 07:02:37;;;;;;;21.13;14.55;;;17.20;99.90;;;;;;5020942;28;46437;-69
2023/07/21 07:05:04;;;;;;;19.92;14.48;;;17.10;99.90;;;;;;5035638;27;45163;-69
2023/07/21 07:07:33;;;;;;;21.75;13.93;;;17.10;99.90;;;;;;5020856;28;45436;-69
2023/07/21 07:09:59;;;;;;;18.92;13.45;;;17.00;99.90;;;;;;5012433;27;46175;-68
2023/07/21 07:12:26;;;;;;;19.50;14.38;;;17.20;99.90;;;;;;5020726;28;45121;-69
2023/07/21 07:14:53;;;;;;;20.60;15.57;;;17.50;99.90;;;;;;5020500;27;45116;-68
2023/07/21 07:17:20;;;;;;;18.58;15.00;;;17.20;99.90;;;;;;5020869;28;45161;-69
2023/07/21 07:19:47;;;;;;;22.48;13.40;;;17.30;99.90;;;;;;5020251;27;46178;-70
2023/07/21 07:22:14;;;;;;;17.30;14.30;;;17.20;99.90;;;;;;5020655;27;45196;-69
2023/07/21 07:24:42;;;;;;;18.02;14.05;;;17.30;99.90;;;;;;5020810;28;45101;-69
2023/07/21 07:27:09;;;;;;;16.80;13.82;;;17.20;99.90;;;;;;5023374;27;45283;-68
2023/07/21 07:29:36;;;;;;;17.40;12.05;;;17.40;99.90;;;;;;5020220;27;47187;-68
2023/07/21 07:32:03;;;;;;;14.95;11.68;;;17.40;99.90;;;;;;5010767;28;45745;-68
2023/07/21 07:34:30;;;;;;;16.17;10.98;;;17.40;99.90;;;;;;5020469;28;45086;-68
2023/07/21 07:36:58;;;;;;;17.88;11.88;;;17.40;99.90;;;;;;5020603;28;45225;-68
2023/07/21 07:39:25;;;;;;;14.40;10.95;;;17.50;99.90;;;;;;5020151;28;47990;-67
2023/07/21 07:41:53;;;;;;;16.38;11.45;;;17.60;99.90;;;;;;5019841;27;45146;-67
2023/07/21 07:44:20;;;;;;;15.80;11.23;;;17.50;99.90;;;;;;5020355;28;45163;-67
2023/07/21 07:46:47;;;;;;;10.82;8.10;;;17.70;99.90;;;;;;5020104;27;45245;-68
2023/07/21 07:49:14;;;;;;;9.48;7.97;;;17.80;99.90;;;;;;5019578;28;45300;-67
2023/07/21 07:51:41;;;;;;;11.73;7.32;;;17.90;99.90;;;;;;5019536;27;45258;-67
2023/07/21 07:54:08;;;;;;;10.73;8.93;;;18.00;99.90;;;;;;5020668;27;45109;-68
2023/07/21 07:56:35;;;;;;;16.67;9.00;;;17.90;99.90;;;;;;5019537;28;45483;-68
2023/07/21 07:59:04;;;;;;;9.75;7.05;;;17.90;99.90;;;;;;5017307;27;47346;-67
2023/07/21 08:01:30;;;;;;;12.55;7.45;;;18.00;99.90;;;;;;5015941;28;45277;-68
2023/07/21 08:03:58;;;;;;;8.55;7.20;;;18.20;99.90;;;;;;5054351;27;45197;-68
2023/07/21 08:06:25;;;;;;;8.88;6.80;;;18.40;99.90;;;;;;5019191;28;45462;-68
2023/07/21 08:08:52;;;;;;;6.93;6.03;;;18.60;99.90;;;;;;5019776;27;46412;-67
2023/07/21 08:11:19;;;;;;;8.80;5.68;;;18.60;99.90;;;;;;5004907;28;45185;-68
2023/07/21 08:13:45;;;;;;;9.88;5.40;;;18.70;99.90;;;;;;5017888;28;45149;-68
2023/07/21 08:16:14;;;;;;;10.25;5.85;;;18.10;99.90;;;;;;5020028;28;45163;-67
2023/07/21 08:18:41;;;;;;;9.30;5.90;;;17.60;99.90;;;;;;5022755;27;45490;-68
2023/07/21 08:21:19;;;;;;;8.25;6.05;;;17.60;99.90;;;;;;5019206;28;45188;-67
2023/07/21 08:23:45;;;;;;;10.82;6.80;;;17.80;99.90;;;;;;5019406;27;45230;-68
2023/07/21 08:26:12;;;;;;;13.05;7.65;;;17.30;99.90;;;;;;5020000;28;45257;-67
2023/07/21 08:28:39;;;;;;;10.18;6.25;;;17.80;99.90;;;;;;5019380;27;46305;-69
2023/07/21 08:31:06;;;;;;;9.68;6.15;;;17.60;99.90;;;;;;5019442;28;45223;-69
2023/07/21 08:33:34;;;;;;;7.93;6.07;;;17.50;99.90;;;;;;5020192;27;45350;-69
2023/07/21 08:36:01;;;;;;;8.85;5.97;;;17.90;99.90;;;;;;5012019;27;45166;-70
2023/07/21 08:38:27;;;;;;;7.60;5.20;;;18.40;99.90;;;;;;5019281;27;46588;-68
2023/07/21 08:41:04;;;;;;;6.40;4.68;;;18.50;99.90;;;;;;5018135;28;45234;-68
2023/07/21 08:43:31;;;;;;;7.15;4.72;;;18.60;98.40;;;;;;5019281;28;45385;-70
2023/07/21 08:46:00;;;;;;;6.03;4.00;;;18.60;99.30;;;;;;5019846;28;45241;-69
2023/07/21 08:48:27;;;;;;;11.43;5.13;;;18.70;97.70;;;;;;5019069;27;46360;-69
2023/07/21 08:50:56;;;;;;;10.38;4.28;;;18.70;98.10;;;;;;5018648;27;46068;-68
2023/07/21 08:53:24;;;;;;;6.30;4.90;;;18.80;97.40;;;;;;5019376;28;45236;-68
2023/07/21 08:55:56;;;;;;;7.43;4.85;;;18.90;97.50;;;;;;5018681;27;45131;-68
2023/07/21 08:58:23;;;;;;;8.90;4.70;;;19.00;97.80;;;;;;5018706;27;46372;-68
2023/07/21 09:00:51;;;;;;;4.88;4.35;;;19.10;97.00;;;;;;5018323;27;45163;-68
2023/07/21 09:03:22;;;;;;;7.97;4.63;;;19.40;94.80;;;;;;5054220;27;45350;-70
2023/07/21 09:05:50;;;;;;;6.63;4.78;;;19.50;96.10;;;;;;5019048;27;45433;-69
2023/07/21 09:08:22;;;;;;;9.35;4.70;;;19.20;93.80;;;;;;5022125;28;45439;-68
2023/07/21 09:10:49;;;;;;;9.10;5.07;;;19.30;93.80;;;;;;5018586;28;45259;-69
2023/07/21 09:13:18;;;;;;;6.53;4.45;;;19.50;93.90;;;;;;5018587;28;45159;-68
2023/07/21 09:15:52;;;;;;;6.18;4.45;;;19.40;93.70;;;;;;5017191;28;45137;-68
2023/07/21 09:18:19;;;;;;;6.90;4.70;;;19.40;93.40;;;;;;5023548;27;46636;-68
2023/07/21 09:20:49;;;;;;;6.28;4.53;;;19.20;91.50;;;;;;5018632;28;45124;-68
2023/07/21 09:23:19;;;;;;;9.07;5.32;;;19.20;92.80;;;;;;5018725;27;45211;-68
2023/07/21 09:25:51;;;;;;;7.78;4.80;;;19.20;92.70;;;;;;5018610;27;45151;-68
2023/07/21 09:28:18;;;;;;;6.72;4.30;;;19.10;91.90;;;;;;5018626;28;46322;-68
2023/07/21 09:30:52;;;;;;;6.63;4.63;;;19.10;93.30;;;;;;5047141;27;45140;-68
2023/07/21 09:33:24;;;;;;;7.15;4.40;;;19.20;94.00;;;;;;5019448;28;45163;-68
2023/07/21 09:35:51;;;;;;;6.60;3.72;;;19.30;92.00;;;;;;5062516;27;45127;-68
2023/07/21 09:38:21;;;;;;;9.82;4.72;;;19.60;93.30;;;;;;5042953;27;46239;-68
2023/07/21 09:40:49;;;;;;;10.15;4.10;;;19.60;92.50;;;;;;5017986;28;45301;-68
2023/07/21 09:43:17;;;;;;;8.13;4.07;;;19.50;91.90;;;;;;5018718;27;45234;-68
2023/07/21 09:45:45;;;;;;;6.63;4.25;;;19.80;93.50;;;;;;5088426;27;45151;-68
2023/07/21 09:48:12;;;;;;;7.70;3.90;;;19.90;92.40;;;;;;5017476;27;45192;-68
2023/07/21 09:50:40;;;;;;;5.18;4.00;;;19.80;90.90;;;;;;5013384;27;45738;-69
2023/07/21 09:53:08;;;;;;;7.07;3.67;;;19.70;90.90;;;;;;5021793;27;45326;-69
2023/07/21 09:55:40;;;;;;;4.88;3.80;;;19.80;91.20;;;;;;5014801;27;45093;-69
2023/07/21 09:58:12;;;;;;;6.43;3.70;;;19.90;90.50;;;;;;5019903;28;45453;-69
2023/07/21 10:00:40;;;;;;;8.63;3.65;;;20.00;91.40;;;;;;5018732;27;45297;-70
2023/07/21 10:03:08;;;;;;;4.60;3.35;;;20.00;92.10;;;;;;5018663;27;45316;-70
2023/07/21 10:05:38;;;;;;;5.32;3.28;;;20.10;88.90;;;;;;5019350;28;45432;-70
2023/07/21 10:08:09;;;;;;;7.57;3.28;;;20.10;89.00;;;;;;5018529;27;45320;-69
2023/07/21 10:10:37;;;;;;;5.97;3.25;;;20.50;85.60;;;;;;5019612;27;45260;-70
2023/07/21 10:13:07;;;;;;;4.38;3.33;;;20.40;82.10;;;;;;5015667;28;45263;-70
2023/07/21 10:15:36;;;;;;;6.63;3.05;;;20.00;85.50;;;;;;5016265;27;45341;-70
2023/07/21 10:18:06;;;;;;;7.13;2.97;;;20.10;84.60;;;;;;5023859;27;47326;-69
2023/07/21 10:20:43;;;;;;;4.05;3.33;;;20.10;86.40;;;;;;5020473;28;45245;-68
2023/07/21 10:23:12;;;;;;;5.13;2.75;;;20.20;83.10;;;;;;5020058;27;45300;-68
2023/07/21 10:26:04;;;;;;;5.32;2.83;;;20.10;85.90;;;;;;5022209;27;45403;-68
2023/07/21 10:28:37;;;;;;;4.80;2.92;;;20.20;86.60;;;;;;5018815;27;45488;-69
2023/07/21 10:31:32;;;;;;;5.65;2.88;;;20.20;87.70;;;;;;5018600;27;45403;-70
2023/07/21 10:34:03;;;;;;;3.85;2.90;;;20.30;86.60;;;;;;5018679;27;45273;-68
2023/07/21 10:36:41;;;;;;;4.15;2.50;;;20.40;86.60;;;;;;5020245;27;45255;-69
2023/07/21 10:39:10;;;;;;;6.13;3.33;;;20.50;84.40;;;;;;5014856;28;48090;-69
2023/07/21 10:41:37;;;;;;;3.42;2.83;;;20.70;81.20;;;;;;5021669;27;45324;-68
2023/07/21 10:44:06;;;;;;;4.43;2.53;;;20.70;80.80;;;;;;5021047;27;45367;-68
2023/07/21 10:46:37;;;;;;;3.72;2.15;;;20.90;80.60;;;;;;5022711;27;45313;-69
2023/07/21 10:49:04;;;;;;;3.55;2.50;;;21.00;79.10;;;;;;5013225;28;46998;-69
2023/07/21 10:51:30;;;;;;;8.65;2.58;;;21.10;70.70;;;;;;5023031;28;45254;-70
2023/07/21 10:53:57;;;;;;;5.32;2.35;;;21.10;75.80;;;;;;5020881;27;45145;-69
2023/07/21 10:56:24;;;;;;;6.47;2.50;;;21.20;79.20;;;;;;5022033;27;45255;-69
2023/07/21 10:58:52;;;;;;;3.35;2.53;;;21.30;77.50;;;;;;5020470;27;46523;-69
2023/07/21 11:01:19;;;;;;;5.78;2.50;;;21.30;73.50;;;;;;5019707;28;45137;-69
2023/07/21 11:03:48;;;;;;;3.42;2.22;;;21.20;74.00;;;;;;5020481;27;45246;-69
2023/07/21 11:06:15;;;;;;;6.80;2.25;;;21.30;76.00;;;;;;5021024;27;45315;-69
2023/07/21 11:08:42;;;;;;;4.03;2.15;;;21.40;76.40;;;;;;5020003;27;47209;-68
2023/07/21 11:11:10;;;;;;;11.60;2.33;;;21.40;74.90;;;;;;5013474;27;45333;-68
2023/07/21 11:13:38;;;;;;;4.75;2.05;;;21.40;74.60;;;;;;5018156;28;45235;-68
2023/07/21 11:16:05;;;;;;;5.53;2.78;;;21.40;74.40;;;;;;5023550;27;45112;-68
2023/07/21 11:18:32;;;;;;;6.07;2.60;;;21.40;73.40;;;;;;5030188;27;45235;-68
2023/07/21 11:21:00;;;;;;;4.35;2.40;;;21.30;73.50;;;;;;5019263;27;45117;-68
2023/07/21 11:23:27;;;;;;;5.35;2.60;;;21.30;73.90;;;;;;5030407;27;45218;-68
2023/07/21 11:26:02;;;;;;;4.28;2.08;;;21.30;73.90;;;;;;5019717;27;45300;-68
2023/07/21 11:28:29;;;;;;;5.35;2.60;;;21.20;73.30;;;;;;5019888;28;46212;-68
2023/07/21 11:30:56;;;;;;;3.45;2.00;;;21.20;72.80;;;;;;5017849;28;45169;-68
2023/07/21 11:33:23;;;;;;;3.75;2.15;;;21.30;74.40;;;;;;5020238;27;45126;-68
2023/07/21 11:35:51;;;;;;;4.07;1.88;;;21.30;75.30;;;;;;5023317;27;45471;-68
2023/07/21 11:38:20;;;;;;;3.60;2.00;;;21.30;76.50;;;;;;5055236;27;47531;-68
2023/07/21 11:40:48;;;;;;;6.00;2.17;;;21.40;74.00;;;;;;5026259;27;45450;-70
2023/07/21 11:43:15;;;;;;;2.95;2.30;;;21.30;71.30;;;;;;5021123;27;45281;-70
2023/07/21 11:45:42;;;;;;;2.53;2.13;;;21.30;72.20;;;;;;5018552;27;45385;-70
2023/07/21 11:48:15;;;;;;;3.55;1.90;;;21.30;72.20;;;;;;5032934;27;46203;-70
2023/07/21 11:50:50;;;;;;;3.45;1.98;;;21.40;74.00;;;;;;5019285;27;45274;-69
2023/07/21 11:53:19;;;;;;;3.88;2.75;;;21.40;73.30;;;;;;5020083;28;45352;-69
2023/07/21 11:55:46;;;;;;;4.68;2.70;;;21.30;71.70;;;;;;5026542;27;45082;-70
2023/07/21 11:58:13;;;;;;;6.80;2.65;;;21.20;75.50;;;;;;5025298;27;45196;-68
2023/07/21 12:00:41;;;;;;;5.55;2.72;;;21.30;74.00;;;;;;5027365;27;45219;-69
2023/07/21 12:03:10;;;;;;;3.42;2.45;;;21.40;74.70;;;;;;5024834;27;45311;-68
2023/07/21 12:05:36;;;;;;;6.10;3.00;;;21.50;75.60;;;;;;5020811;27;45130;-69
2023/07/21 12:08:06;;;;;;;5.07;2.40;;;21.60;73.10;;;;;;5019786;28;46991;-68
2023/07/21 12:10:34;;;;;;;2.92;2.60;;;21.60;71.10;;;;;;5024972;27;45386;-69
2023/07/21 12:13:03;;;;;;;2.60;2.10;;;21.60;71.10;;;;;;5033406;27;45045;-68
2023/07/21 12:15:31;;;;;;;3.25;2.15;;;21.60;70.70;;;;;;5020009;28;45426;-68
2023/07/21 12:17:57;;;;;;;2.10;1.20;;;21.60;69.00;;;;;;5019230;27;46375;-68
2023/07/21 12:20:24;;;;;;;2.70;1.60;;;21.60;69.90;;;;;;5018040;28;45340;-68
2023/07/21 12:22:51;;;;;;;1.77;1.40;;;21.70;68.40;;;;;;5018327;27;45294;-69
2023/07/21 12:25:18;;;;;;;3.72;1.33;;;21.80;69.50;;;;;;5023442;27;45383;-68
2023/07/21 12:27:46;;;;;;;2.83;1.25;;;21.80;63.30;;;;;;5019474;27;46274;-68
2023/07/21 12:30:13;;;;;;;4.40;1.30;;;21.80;62.20;;;;;;5020337;27;46198;-68
2023/07/21 12:32:39;;;;;;;5.32;1.55;;;21.80;64.30;;;;;;5022641;27;45127;-69
2023/07/21 12:35:07;;;;;;;3.90;1.23;;;21.90;63.60;;;;;;5053406;27;45227;-68
2023/07/21 12:37:38;;;;;;;3.33;1.05;;;21.90;64.80;;;;;;5018119;28;46238;-68
2023/07/21 12:40:11;;;;;;;2.17;1.20;;;21.80;61.70;;;;;;5051863;27;45607;-68